sensor_id;sensor_type;location;lat;lon;timestamp;P1;durP1;ratioP1;P2;durP2;ratioP2
53688;SDS011;39583;54.682;30.662;2022-09-27T04:58:42;111.78;;;104.40;;
53688;SDS011;39583;54.682;30.662;2022-09-27T05:01:09;102.55;;;94.88;;
53688;SDS011;39583;54.682;30.662;2022-09-27T05:03:54;17.17;;;15.80;;
53688;SDS011;39583;54.682;30.662;2022-09-27T06:51:22;15.38;;;14.50;;
53688;SDS011;39583;54.682;30.662;2022-09-27T06:53:49;6.55;;;5.97;;
53688;SDS011;39583;54.682;30.662;2022-09-27T06:56:15;2.72;;;2.40;;
53688;SDS011;39583;54.682;30.662;2022-09-27T06:58:49;3.72;;;3.42;;
53688;SDS011;39583;54.682;30.662;2022-09-27T07:01:40;3.13;;;2.63;;
53688;SDS011;39583;54.682;30.662;2022-09-27T07:04:28;3.90;;;2.65;;
53688;SDS011;39583;54.682;30.662;2022-09-27T07:07:00;3.90;;;3.50;;
53688;SDS011;39583;54.682;30.662;2022-09-27T07:12:00;3.35;;;2.47;;
53688;SDS011;39583;54.682;30.662;2022-09-27T07:14:27;15.68;;;14.73;;
53688;SDS011;39583;54.682;30.662;2022-09-27T07:16:54;2.88;;;2.35;;
53688;SDS011;39583;54.682;30.662;2022-09-27T07:19:20;4.00;;;2.40;;
53688;SDS011;39583;54.682;30.662;2022-09-27T07:21:49;2.72;;;2.10;;
53688;SDS011;39583;54.682;30.662;2022-09-27T07:24:16;3.78;;;3.45;;
53688;SDS011;39583;54.682;30.662;2022-09-27T07:26:43;3.17;;;2.75;;
53688;SDS011;39583;54.682;30.662;2022-09-27T07:29:11;6.43;;;5.93;;
53688;SDS011;39583;54.682;30.662;2022-09-27T07:31:38;3.45;;;2.40;;
53688;SDS011;39583;54.682;30.662;2022-09-27T07:34:04;3.03;;;2.25;;
53688;SDS011;39583;54.682;30.662;2022-09-27T07:36:31;2.95;;;2.10;;
53688;SDS011;39583;54.682;30.662;2022-09-27T07:38:58;2.22;;;1.70;;
53688;SDS011;39583;54.682;30.662;2022-09-27T07:41:25;2.13;;;1.70;;
53688;SDS011;39583;54.682;30.662;2022-09-27T07:43:52;15.38;;;14.43;;
53688;SDS011;39583;54.682;30.662;2022-09-27T07:46:20;2.83;;;2.10;;
53688;SDS011;39583;54.682;30.662;2022-09-27T07:49:04;6.65;;;6.10;;
53688;SDS011;39583;54.682;30.662;2022-09-27T07:51:49;3.47;;;3.13;;
53688;SDS011;39583;54.682;30.662;2022-09-27T07:54:32;30.38;;;27.33;;
53688;SDS011;39583;54.682;30.662;2022-09-27T07:57:05;13.70;;;7.72;;
53688;SDS011;39583;54.682;30.662;2022-09-27T07:59:42;4.72;;;2.05;;
53688;SDS011;39583;54.682;30.662;2022-09-27T08:02:14;6.38;;;2.40;;
53688;SDS011;39583;54.682;30.662;2022-09-27T08:04:43;10.13;;;3.03;;
53688;SDS011;39583;54.682;30.662;2022-09-27T08:07:12;5.18;;;4.78;;
53688;SDS011;39583;54.682;30.662;2022-09-27T08:09:41;4.47;;;3.13;;
53688;SDS011;39583;54.682;30.662;2022-09-27T08:12:07;6.00;;;2.50;;
53688;SDS011;39583;54.682;30.662;2022-09-27T08:14:35;7.20;;;2.70;;
53688;SDS011;39583;54.682;30.662;2022-09-27T08:17:01;6.20;;;2.40;;
53688;SDS011;39583;54.682;30.662;2022-09-27T08:19:27;2.90;;;2.28;;
53688;SDS011;39583;54.682;30.662;2022-09-27T08:22:33;3.92;;;3.22;;
53688;SDS011;39583;54.682;30.662;2022-09-27T08:25:19;9.85;;;9.20;;
53688;SDS011;39583;54.682;30.662;2022-09-27T08:28:03;6.38;;;2.35;;
53688;SDS011;39583;54.682;30.662;2022-09-27T08:30:39;3.90;;;2.03;;
53688;SDS011;39583;54.682;30.662;2022-09-27T08:33:06;5.75;;;3.10;;
53688;SDS011;39583;54.682;30.662;2022-09-27T08:35:34;3.05;;;2.75;;
53688;SDS011;39583;54.682;30.662;2022-09-27T08:38:01;3.05;;;2.10;;
53688;SDS011;39583;54.682;30.662;2022-09-27T08:43:22;3.30;;;3.00;;
53688;SDS011;39583;54.682;30.662;2022-09-27T08:48:24;4.97;;;4.53;;
53688;SDS011;39583;54.682;30.662;2022-09-27T08:50:53;26.88;;;24.92;;
53688;SDS011;39583;54.682;30.662;2022-09-27T08:53:22;3.95;;;3.65;;
53688;SDS011;39583;54.682;30.662;2022-09-27T08:56:11;3.00;;;2.15;;
53688;SDS011;39583;54.682;30.662;2022-09-27T08:58:52;6.88;;;6.35;;
53688;SDS011;39583;54.682;30.662;2022-09-27T09:01:31;5.82;;;2.47;;
53688;SDS011;39583;54.682;30.662;2022-09-27T09:04:08;4.53;;;2.00;;
53688;SDS011;39583;54.682;30.662;2022-09-27T09:12:08;5.65;;;5.15;;
53688;SDS011;39583;54.682;30.662;2022-09-27T09:27:02;2.75;;;1.50;;
53688;SDS011;39583;54.682;30.662;2022-09-27T09:35:58;1.90;;;1.20;;
53688;SDS011;39583;54.682;30.662;2022-09-27T09:38:34;1.90;;;1.15;;
53688;SDS011;39583;54.682;30.662;2022-09-27T09:44:09;2.65;;;1.55;;
53688;SDS011;39583;54.682;30.662;2022-09-27T09:46:48;1.65;;;1.30;;
53688;SDS011;39583;54.682;30.662;2022-09-27T09:49:20;1.50;;;1.38;;
53688;SDS011;39583;54.682;30.662;2022-09-27T09:51:53;6.97;;;6.10;;
53688;SDS011;39583;54.682;30.662;2022-09-27T09:56:59;1.65;;;1.55;;
53688;SDS011;39583;54.682;30.662;2022-09-27T09:59:32;9.18;;;8.57;;
53688;SDS011;39583;54.682;30.662;2022-09-27T10:04:52;1.85;;;1.25;;
53688;SDS011;39583;54.682;30.662;2022-09-27T10:07:20;1.38;;;1.08;;
53688;SDS011;39583;54.682;30.662;2022-09-27T10:09:51;5.57;;;5.22;;
53688;SDS011;39583;54.682;30.662;2022-09-27T10:12:46;1.30;;;1.10;;
53688;SDS011;39583;54.682;30.662;2022-09-27T10:15:16;3.28;;;2.97;;
53688;SDS011;39583;54.682;30.662;2022-09-27T10:17:48;4.82;;;1.50;;
53688;SDS011;39583;54.682;30.662;2022-09-27T10:20:32;2.10;;;1.10;;
53688;SDS011;39583;54.682;30.662;2022-09-27T10:23:04;1.80;;;1.20;;
53688;SDS011;39583;54.682;30.662;2022-09-27T10:25:49;1.02;;;0.82;;
53688;SDS011;39583;54.682;30.662;2022-09-27T10:28:42;5.85;;;5.45;;
53688;SDS011;39583;54.682;30.662;2022-09-27T10:31:15;3.05;;;2.03;;
53688;SDS011;39583;54.682;30.662;2022-09-27T10:34:04;2.38;;;1.92;;
53688;SDS011;39583;54.682;30.662;2022-09-27T10:36:38;1.25;;;1.00;;
53688;SDS011;39583;54.682;30.662;2022-09-27T10:39:05;2.70;;;1.80;;
53688;SDS011;39583;54.682;30.662;2022-09-27T10:41:45;3.53;;;1.55;;
53688;SDS011;39583;54.682;30.662;2022-09-27T10:44:33;2.17;;;1.52;;
53688;SDS011;39583;54.682;30.662;2022-09-27T10:47:11;2.13;;;1.75;;
53688;SDS011;39583;54.682;30.662;2022-09-27T10:50:05;2.80;;;2.15;;
53688;SDS011;39583;54.682;30.662;2022-09-27T10:53:03;4.47;;;1.55;;
53688;SDS011;39583;54.682;30.662;2022-09-27T10:55:33;2.15;;;1.10;;
53688;SDS011;39583;54.682;30.662;2022-09-27T10:58:01;2.55;;;2.38;;
53688;SDS011;39583;54.682;30.662;2022-09-27T11:00:32;3.42;;;3.13;;
53688;SDS011;39583;54.682;30.662;2022-09-27T11:03:07;9.07;;;8.57;;
53688;SDS011;39583;54.682;30.662;2022-09-27T11:05:40;3.70;;;1.20;;
53688;SDS011;39583;54.682;30.662;2022-09-27T11:10:59;1.38;;;1.27;;
53688;SDS011;39583;54.682;30.662;2022-09-27T11:13:27;1.63;;;1.30;;
53688;SDS011;39583;54.682;30.662;2022-09-27T11:16:10;1.92;;;1.48;;
53688;SDS011;39583;54.682;30.662;2022-09-27T11:21:59;1.48;;;1.38;;
53688;SDS011;39583;54.682;30.662;2022-09-27T11:30:00;1.42;;;1.02;;
53688;SDS011;39583;54.682;30.662;2022-09-27T11:38:53;6.50;;;3.00;;
53688;SDS011;39583;54.682;30.662;2022-09-27T11:41:49;3.10;;;1.45;;
53688;SDS011;39583;54.682;30.662;2022-09-27T11:47:08;3.03;;;2.83;;
53688;SDS011;39583;54.682;30.662;2022-09-27T12:06:37;1.30;;;0.90;;
53688;SDS011;39583;54.682;30.662;2022-09-27T12:09:32;2.83;;;1.15;;
53688;SDS011;39583;54.682;30.662;2022-09-27T12:12:12;6.90;;;6.50;;
53688;SDS011;39583;54.682;30.662;2022-09-27T12:14:46;1.35;;;1.25;;
53688;SDS011;39583;54.682;30.662;2022-09-27T12:17:28;11.15;;;10.55;;
53688;SDS011;39583;54.682;30.662;2022-09-27T12:20:02;1.33;;;0.80;;
53688;SDS011;39583;54.682;30.662;2022-09-27T12:25:21;1.48;;;1.10;;
53688;SDS011;39583;54.682;30.662;2022-09-27T12:28:02;1.63;;;0.90;;
53688;SDS011;39583;54.682;30.662;2022-09-27T12:30:51;1.33;;;1.10;;
53688;SDS011;39583;54.682;30.662;2022-09-27T12:33:25;1.42;;;0.98;;
53688;SDS011;39583;54.682;30.662;2022-09-27T12:36:01;1.92;;;0.98;;
53688;SDS011;39583;54.682;30.662;2022-09-27T12:38:43;3.70;;;1.20;;
53688;SDS011;39583;54.682;30.662;2022-09-27T12:41:13;1.50;;;1.20;;
53688;SDS011;39583;54.682;30.662;2022-09-27T12:43:57;1.48;;;1.00;;
53688;SDS011;39583;54.682;30.662;2022-09-27T12:49:13;1.33;;;1.05;;
53688;SDS011;39583;54.682;30.662;2022-09-27T12:51:57;4.18;;;3.88;;
53688;SDS011;39583;54.682;30.662;2022-09-27T13:00:32;2.53;;;1.00;;
53688;SDS011;39583;54.682;30.662;2022-09-27T13:14:03;1.25;;;1.05;;
53688;SDS011;39583;54.682;30.662;2022-09-27T13:16:39;3.40;;;3.13;;
53688;SDS011;39583;54.682;30.662;2022-09-27T13:19:15;1.13;;;0.95;;
53688;SDS011;39583;54.682;30.662;2022-09-27T13:22:09;3.40;;;3.08;;
53688;SDS011;39583;54.682;30.662;2022-09-27T13:28:56;2.13;;;0.93;;
53688;SDS011;39583;54.682;30.662;2022-09-27T13:31:59;3.38;;;2.22;;
53688;SDS011;39583;54.682;30.662;2022-09-27T13:37:33;2.70;;;1.27;;
53688;SDS011;39583;54.682;30.662;2022-09-27T13:45:50;1.95;;;1.30;;
53688;SDS011;39583;54.682;30.662;2022-09-27T13:48:27;2.47;;;1.83;;
53688;SDS011;39583;54.682;30.662;2022-09-27T13:51:03;6.00;;;5.28;;
53688;SDS011;39583;54.682;30.662;2022-09-27T13:53:41;5.47;;;2.72;;
53688;SDS011;39583;54.682;30.662;2022-09-27T13:59:04;3.65;;;2.17;;
53688;SDS011;39583;54.682;30.662;2022-09-27T14:01:48;4.13;;;2.40;;
53688;SDS011;39583;54.682;30.662;2022-09-27T14:04:27;5.65;;;2.67;;
53688;SDS011;39583;54.682;30.662;2022-09-27T14:06:57;3.25;;;2.20;;
53688;SDS011;39583;54.682;30.662;2022-09-27T14:09:30;3.70;;;2.45;;
53688;SDS011;39583;54.682;30.662;2022-09-27T14:12:20;2.95;;;2.25;;
53688;SDS011;39583;54.682;30.662;2022-09-27T14:14:50;3.83;;;2.22;;
53688;SDS011;39583;54.682;30.662;2022-09-27T14:17:19;3.05;;;2.13;;
53688;SDS011;39583;54.682;30.662;2022-09-27T14:19:47;3.15;;;2.58;;
53688;SDS011;39583;54.682;30.662;2022-09-27T14:22:17;3.80;;;1.95;;
53688;SDS011;39583;54.682;30.662;2022-09-27T14:24:58;3.20;;;2.00;;
53688;SDS011;39583;54.682;30.662;2022-09-27T14:27:37;2.13;;;1.58;;
53688;SDS011;39583;54.682;30.662;2022-09-27T14:30:16;8.95;;;1.95;;
53688;SDS011;39583;54.682;30.662;2022-09-27T14:32:51;5.10;;;1.70;;
53688;SDS011;39583;54.682;30.662;2022-09-27T14:35:47;5.18;;;1.60;;
53688;SDS011;39583;54.682;30.662;2022-09-27T14:38:33;3.13;;;1.70;;
53688;SDS011;39583;54.682;30.662;2022-09-27T14:41:03;3.25;;;1.65;;
53688;SDS011;39583;54.682;30.662;2022-09-27T14:43:32;4.40;;;1.67;;
53688;SDS011;39583;54.682;30.662;2022-09-27T14:46:01;2.72;;;1.48;;
53688;SDS011;39583;54.682;30.662;2022-09-27T14:48:37;2.88;;;1.50;;
53688;SDS011;39583;54.682;30.662;2022-09-27T14:56:22;3.72;;;1.42;;
53688;SDS011;39583;54.682;30.662;2022-09-27T14:58:53;2.05;;;1.40;;
53688;SDS011;39583;54.682;30.662;2022-09-27T15:01:27;2.33;;;1.80;;
53688;SDS011;39583;54.682;30.662;2022-09-27T15:04:01;2.58;;;1.50;;
53688;SDS011;39583;54.682;30.662;2022-09-27T15:06:36;3.10;;;1.23;;
53688;SDS011;39583;54.682;30.662;2022-09-27T15:09:04;2.00;;;1.20;;
53688;SDS011;39583;54.682;30.662;2022-09-27T15:11:31;2.33;;;1.40;;
53688;SDS011;39583;54.682;30.662;2022-09-27T15:13:59;3.47;;;1.40;;
53688;SDS011;39583;54.682;30.662;2022-09-27T15:16:28;2.00;;;1.10;;
53688;SDS011;39583;54.682;30.662;2022-09-27T15:19:10;3.15;;;2.25;;
53688;SDS011;39583;54.682;30.662;2022-09-27T15:21:41;1.77;;;1.10;;
53688;SDS011;39583;54.682;30.662;2022-09-27T15:27:02;1.20;;;1.00;;
53688;SDS011;39583;54.682;30.662;2022-09-27T15:29:30;2.22;;;1.42;;
53688;SDS011;39583;54.682;30.662;2022-09-27T15:31:58;4.53;;;1.33;;
53688;SDS011;39583;54.682;30.662;2022-09-27T15:34:29;1.50;;;1.30;;
53688;SDS011;39583;54.682;30.662;2022-09-27T15:36:57;1.33;;;1.10;;
53688;SDS011;39583;54.682;30.662;2022-09-27T15:42:00;1.50;;;1.40;;
53688;SDS011;39583;54.682;30.662;2022-09-27T15:44:52;5.07;;;1.42;;
53688;SDS011;39583;54.682;30.662;2022-09-27T15:52:46;2.22;;;1.48;;
53688;SDS011;39583;54.682;30.662;2022-09-27T15:55:18;1.48;;;1.38;;
53688;SDS011;39583;54.682;30.662;2022-09-27T15:57:48;1.70;;;1.60;;
53688;SDS011;39583;54.682;30.662;2022-09-27T16:00:18;4.88;;;1.63;;
53688;SDS011;39583;54.682;30.662;2022-09-27T16:02:45;3.28;;;1.65;;
53688;SDS011;39583;54.682;30.662;2022-09-27T16:05:12;2.70;;;1.60;;
53688;SDS011;39583;54.682;30.662;2022-09-27T16:07:38;2.15;;;1.90;;
53688;SDS011;39583;54.682;30.662;2022-09-27T16:10:12;2.17;;;1.98;;
53688;SDS011;39583;54.682;30.662;2022-09-27T16:12:43;2.03;;;1.63;;
53688;SDS011;39583;54.682;30.662;2022-09-27T16:15:10;2.20;;;2.00;;
53688;SDS011;39583;54.682;30.662;2022-09-27T16:17:37;2.05;;;1.85;;
53688;SDS011;39583;54.682;30.662;2022-09-27T16:20:17;2.13;;;1.88;;
53688;SDS011;39583;54.682;30.662;2022-09-27T16:22:47;3.65;;;1.73;;
53688;SDS011;39583;54.682;30.662;2022-09-27T16:25:14;2.83;;;1.80;;
53688;SDS011;39583;54.682;30.662;2022-09-27T16:27:41;4.57;;;2.10;;
53688;SDS011;39583;54.682;30.662;2022-09-27T16:30:07;4.60;;;1.98;;
53688;SDS011;39583;54.682;30.662;2022-09-27T16:32:39;2.15;;;2.00;;
53688;SDS011;39583;54.682;30.662;2022-09-27T16:35:09;2.55;;;2.28;;
53688;SDS011;39583;54.682;30.662;2022-09-27T16:37:37;2.88;;;2.00;;
53688;SDS011;39583;54.682;30.662;2022-09-27T16:40:04;2.53;;;2.33;;
53688;SDS011;39583;54.682;30.662;2022-09-27T16:42:33;2.38;;;2.17;;
53688;SDS011;39583;54.682;30.662;2022-09-27T16:45:01;3.40;;;2.10;;
53688;SDS011;39583;54.682;30.662;2022-09-27T16:47:29;2.33;;;2.13;;
53688;SDS011;39583;54.682;30.662;2022-09-27T16:49:56;5.05;;;2.30;;
53688;SDS011;39583;54.682;30.662;2022-09-27T16:52:49;2.92;;;2.13;;
53688;SDS011;39583;54.682;30.662;2022-09-27T16:55:17;2.33;;;2.13;;
53688;SDS011;39583;54.682;30.662;2022-09-27T16:57:48;2.10;;;1.95;;
53688;SDS011;39583;54.682;30.662;2022-09-27T17:00:16;3.83;;;2.40;;
53688;SDS011;39583;54.682;30.662;2022-09-27T17:02:45;2.28;;;2.08;;
53688;SDS011;39583;54.682;30.662;2022-09-27T17:05:14;2.42;;;2.22;;
53688;SDS011;39583;54.682;30.662;2022-09-27T17:07:42;2.55;;;2.35;;
53688;SDS011;39583;54.682;30.662;2022-09-27T17:10:09;2.22;;;2.03;;
53688;SDS011;39583;54.682;30.662;2022-09-27T17:12:35;5.10;;;2.50;;
53688;SDS011;39583;54.682;30.662;2022-09-27T17:15:02;2.25;;;2.03;;
53688;SDS011;39583;54.682;30.662;2022-09-27T17:17:29;2.60;;;2.40;;
53688;SDS011;39583;54.682;30.662;2022-09-27T17:19:55;2.75;;;2.22;;
53688;SDS011;39583;54.682;30.662;2022-09-27T17:22:22;2.55;;;2.30;;
53688;SDS011;39583;54.682;30.662;2022-09-27T17:24:49;2.58;;;2.38;;
53688;SDS011;39583;54.682;30.662;2022-09-27T17:27:15;2.40;;;2.20;;
53688;SDS011;39583;54.682;30.662;2022-09-27T17:29:42;2.47;;;2.30;;
53688;SDS011;39583;54.682;30.662;2022-09-27T17:32:10;2.38;;;2.20;;
53688;SDS011;39583;54.682;30.662;2022-09-27T17:34:39;2.45;;;2.22;;
53688;SDS011;39583;54.682;30.662;2022-09-27T17:37:09;2.55;;;2.35;;
53688;SDS011;39583;54.682;30.662;2022-09-27T17:39:35;2.58;;;2.38;;
53688;SDS011;39583;54.682;30.662;2022-09-27T17:42:03;3.65;;;2.33;;
53688;SDS011;39583;54.682;30.662;2022-09-27T17:44:30;2.42;;;2.22;;
53688;SDS011;39583;54.682;30.662;2022-09-27T17:46:56;2.40;;;2.20;;
53688;SDS011;39583;54.682;30.662;2022-09-27T17:49:43;2.15;;;1.98;;
53688;SDS011;39583;54.682;30.662;2022-09-27T17:52:27;2.60;;;2.40;;
53688;SDS011;39583;54.682;30.662;2022-09-27T17:54:56;2.42;;;2.22;;
53688;SDS011;39583;54.682;30.662;2022-09-27T17:57:23;2.13;;;1.90;;
53688;SDS011;39583;54.682;30.662;2022-09-27T17:59:51;3.28;;;2.38;;
53688;SDS011;39583;54.682;30.662;2022-09-27T18:02:18;2.60;;;2.40;;
53688;SDS011;39583;54.682;30.662;2022-09-27T18:04:47;4.13;;;2.90;;
53688;SDS011;39583;54.682;30.662;2022-09-27T18:07:13;1.90;;;1.80;;
53688;SDS011;39583;54.682;30.662;2022-09-27T18:09:40;2.45;;;2.20;;
53688;SDS011;39583;54.682;30.662;2022-09-27T18:12:07;2.30;;;2.10;;
53688;SDS011;39583;54.682;30.662;2022-09-27T18:14:34;2.20;;;2.00;;
53688;SDS011;39583;54.682;30.662;2022-09-27T18:17:01;2.13;;;1.92;;
53688;SDS011;39583;54.682;30.662;2022-09-27T18:19:28;4.55;;;2.20;;
53688;SDS011;39583;54.682;30.662;2022-09-27T18:21:56;2.47;;;2.28;;
53688;SDS011;39583;54.682;30.662;2022-09-27T18:24:22;2.05;;;1.92;;
53688;SDS011;39583;54.682;30.662;2022-09-27T18:26:51;2.45;;;2.15;;
53688;SDS011;39583;54.682;30.662;2022-09-27T18:29:19;2.28;;;2.08;;
53688;SDS011;39583;54.682;30.662;2022-09-27T18:31:46;2.63;;;2.42;;
53688;SDS011;39583;54.682;30.662;2022-09-27T18:34:13;2.60;;;2.10;;
53688;SDS011;39583;54.682;30.662;2022-09-27T18:36:40;4.80;;;2.20;;
53688;SDS011;39583;54.682;30.662;2022-09-27T18:39:11;3.40;;;2.10;;
53688;SDS011;39583;54.682;30.662;2022-09-27T18:41:42;3.58;;;3.28;;
53688;SDS011;39583;54.682;30.662;2022-09-27T18:44:10;4.97;;;1.90;;
53688;SDS011;39583;54.682;30.662;2022-09-27T18:46:38;2.67;;;2.28;;
53688;SDS011;39583;54.682;30.662;2022-09-27T18:49:08;2.45;;;2.25;;
53688;SDS011;39583;54.682;30.662;2022-09-27T18:51:38;2.72;;;2.40;;
53688;SDS011;39583;54.682;30.662;2022-09-27T18:54:16;2.28;;;2.08;;
